sensor_id;sensor_type;location;lat;lon;timestamp;temperature;humidity
14144;DHT22;7152;48.348;10.980;2023-08-17T00:01:48;21.40;99.90
14144;DHT22;7152;48.348;10.980;2023-08-17T00:04:14;21.40;99.90
14144;DHT22;7152;48.348;10.980;2023-08-17T00:06:40;21.30;99.90
14144;DHT22;7152;48.348;10.980;2023-08-17T00:09:06;21.30;99.90
14144;DHT22;7152;48.348;10.980;2023-08-17T00:11:33;21.20;99.90
14144;DHT22;7152;48.348;10.980;2023-08-17T00:13:59;21.30;99.90
14144;DHT22;7152;48.348;10.980;2023-08-17T00:16:25;21.30;99.90
14144;DHT22;7152;48.348;10.980;2023-08-17T00:18:51;21.20;99.90
14144;DHT22;7152;48.348;10.980;2023-08-17T00:21:17;21.10;99.90
14144;DHT22;7152;48.348;10.980;2023-08-17T00:23:43;21.10;99.90
14144;DHT22;7152;48.348;10.980;2023-08-17T00:26:09;21.00;99.90
14144;DHT22;7152;48.348;10.980;2023-08-17T00:28:35;20.90;99.90
14144;DHT22;7152;48.348;10.980;2023-08-17T00:31:01;20.90;99.90
14144;DHT22;7152;48.348;10.980;2023-08-17T00:33:27;20.80;99.90
14144;DHT22;7152;48.348;10.980;2023-08-17T00:35:53;20.80;99.90
14144;DHT22;7152;48.348;10.980;2023-08-17T00:38:19;20.80;99.90
14144;DHT22;7152;48.348;10.980;2023-08-17T00:40:47;20.70;99.90
14144;DHT22;7152;48.348;10.980;2023-08-17T00:43:12;20.70;99.90
14144;DHT22;7152;48.348;10.980;2023-08-17T00:45:39;20.70;99.90
14144;DHT22;7152;48.348;10.980;2023-08-17T00:48:06;20.60;99.90
14144;DHT22;7152;48.348;10.980;2023-08-17T00:50:34;20.60;99.90
14144;DHT22;7152;48.348;10.980;2023-08-17T00:53:01;20.50;99.90
14144;DHT22;7152;48.348;10.980;2023-08-17T00:55:28;20.50;99.90
14144;DHT22;7152;48.348;10.980;2023-08-17T00:57:56;20.50;99.90
14144;DHT22;7152;48.348;10.980;2023-08-17T01:00:22;20.40;99.90
14144;DHT22;7152;48.348;10.980;2023-08-17T01:02:49;20.40;99.90
14144;DHT22;7152;48.348;10.980;2023-08-17T01:05:16;20.30;99.90
14144;DHT22;7152;48.348;10.980;2023-08-17T01:07:42;20.30;99.90
14144;DHT22;7152;48.348;10.980;2023-08-17T01:10:08;20.20;99.90
14144;DHT22;7152;48.348;10.980;2023-08-17T01:17:43;20.10;99.90
14144;DHT22;7152;48.348;10.980;2023-08-17T01:20:13;20.10;99.90
14144;DHT22;7152;48.348;10.980;2023-08-17T01:22:41;20.00;99.90
14144;DHT22;7152;48.348;10.980;2023-08-17T01:25:08;20.00;99.90
14144;DHT22;7152;48.348;10.980;2023-08-17T01:27:42;20.00;99.90
14144;DHT22;7152;48.348;10.980;2023-08-17T01:30:11;19.90;99.90
14144;DHT22;7152;48.348;10.980;2023-08-17T01:32:50;19.90;99.90
14144;DHT22;7152;48.348;10.980;2023-08-17T01:35:40;19.90;99.90
14144;DHT22;7152;48.348;10.980;2023-08-17T01:38:12;19.90;99.90
14144;DHT22;7152;48.348;10.980;2023-08-17T01:40:41;19.90;99.90
14144;DHT22;7152;48.348;10.980;2023-08-17T01:43:09;19.90;99.90
14144;DHT22;7152;48.348;10.980;2023-08-17T01:45:35;19.90;99.90
14144;DHT22;7152;48.348;10.980;2023-08-17T01:48:01;19.90;99.90
14144;DHT22;7152;48.348;10.980;2023-08-17T01:50:27;19.90;99.90
14144;DHT22;7152;48.348;10.980;2023-08-17T01:52:53;19.80;99.90
14144;DHT22;7152;48.348;10.980;2023-08-17T01:55:21;19.90;99.90
14144;DHT22;7152;48.348;10.980;2023-08-17T01:57:47;19.80;99.90
14144;DHT22;7152;48.348;10.980;2023-08-17T02:00:13;19.80;99.90
14144;DHT22;7152;48.348;10.980;2023-08-17T02:02:42;19.80;99.90
14144;DHT22;7152;48.348;10.980;2023-08-17T02:05:08;19.80;99.90
14144;DHT22;7152;48.348;10.980;2023-08-17T02:07:34;19.80;99.90
14144;DHT22;7152;48.348;10.980;2023-08-17T02:10:00;19.80;99.90
14144;DHT22;7152;48.348;10.980;2023-08-17T02:12:25;19.80;99.90
14144;DHT22;7152;48.348;10.980;2023-08-17T02:14:51;19.80;99.90
14144;DHT22;7152;48.348;10.980;2023-08-17T02:17:18;19.80;99.90
14144;DHT22;7152;48.348;10.980;2023-08-17T02:19:45;19.80;99.90
14144;DHT22;7152;48.348;10.980;2023-08-17T02:22:13;19.80;99.90
14144;DHT22;7152;48.348;10.980;2023-08-17T02:24:38;19.80;99.90
14144;DHT22;7152;48.348;10.980;2023-08-17T02:27:04;19.80;99.90
14144;DHT22;7152;48.348;10.980;2023-08-17T02:29:30;19.80;99.90
14144;DHT22;7152;48.348;10.980;2023-08-17T02:31:56;19.70;99.90
14144;DHT22;7152;48.348;10.980;2023-08-17T02:34:22;19.70;99.90
14144;DHT22;7152;48.348;10.980;2023-08-17T02:36:47;19.70;99.90
14144;DHT22;7152;48.348;10.980;2023-08-17T02:39:13;19.70;99.90
14144;DHT22;7152;48.348;10.980;2023-08-17T02:41:39;19.70;99.90
14144;DHT22;7152;48.348;10.980;2023-08-17T02:44:05;19.70;99.90
14144;DHT22;7152;48.348;10.980;2023-08-17T02:46:31;19.70;99.90
14144;DHT22;7152;48.348;10.980;2023-08-17T02:48:56;19.70;99.90
14144;DHT22;7152;48.348;10.980;2023-08-17T02:51:23;19.70;99.90
14144;DHT22;7152;48.348;10.980;2023-08-17T02:53:49;19.70;99.90
14144;DHT22;7152;48.348;10.980;2023-08-17T02:56:15;19.70;99.90
14144;DHT22;7152;48.348;10.980;2023-08-17T02:58:41;19.60;99.90
14144;DHT22;7152;48.348;10.980;2023-08-17T03:01:07;19.60;99.90
14144;DHT22;7152;48.348;10.980;2023-08-17T03:03:33;19.50;99.90
14144;DHT22;7152;48.348;10.980;2023-08-17T03:05:59;19.50;99.90
14144;DHT22;7152;48.348;10.980;2023-08-17T03:08:25;19.50;99.90
14144;DHT22;7152;48.348;10.980;2023-08-17T03:10:52;19.50;99.90
14144;DHT22;7152;48.348;10.980;2023-08-17T03:13:18;19.40;99.90
14144;DHT22;7152;48.348;10.980;2023-08-17T03:15:44;19.50;99.90
14144;DHT22;7152;48.348;10.980;2023-08-17T03:18:09;19.50;99.90
14144;DHT22;7152;48.348;10.980;2023-08-17T03:20:37;19.40;99.90
14144;DHT22;7152;48.348;10.980;2023-08-17T03:23:03;19.40;99.90
14144;DHT22;7152;48.348;10.980;2023-08-17T03:25:33;19.40;99.90
14144;DHT22;7152;48.348;10.980;2023-08-17T03:28:00;19.40;99.90
14144;DHT22;7152;48.348;10.980;2023-08-17T03:30:26;19.40;99.90
14144;DHT22;7152;48.348;10.980;2023-08-17T03:32:52;19.40;99.90
14144;DHT22;7152;48.348;10.980;2023-08-17T03:35:18;19.40;99.90
14144;DHT22;7152;48.348;10.980;2023-08-17T03:37:44;19.40;99.90
14144;DHT22;7152;48.348;10.980;2023-08-17T03:40:11;19.40;99.90
14144;DHT22;7152;48.348;10.980;2023-08-17T03:42:37;19.40;99.90
14144;DHT22;7152;48.348;10.980;2023-08-17T03:45:04;19.30;99.90
14144;DHT22;7152;48.348;10.980;2023-08-17T03:47:30;19.40;99.90
14144;DHT22;7152;48.348;10.980;2023-08-17T03:49:56;19.40;99.90
14144;DHT22;7152;48.348;10.980;2023-08-17T03:52:21;19.40;99.90
14144;DHT22;7152;48.348;10.980;2023-08-17T03:54:47;19.50;99.90
14144;DHT22;7152;48.348;10.980;2023-08-17T03:57:13;19.50;99.90
14144;DHT22;7152;48.348;10.980;2023-08-17T03:59:40;19.40;99.90
14144;DHT22;7152;48.348;10.980;2023-08-17T04:02:08;19.40;99.90
14144;DHT22;7152;48.348;10.980;2023-08-17T04:04:34;19.40;99.90
14144;DHT22;7152;48.348;10.980;2023-08-17T04:07:00;19.40;99.90
14144;DHT22;7152;48.348;10.980;2023-08-17T04:09:26;19.40;99.90
14144;DHT22;7152;48.348;10.980;2023-08-17T04:11:52;19.30;99.90
14144;DHT22;7152;48.348;10.980;2023-08-17T04:14:18;19.40;99.90
14144;DHT22;7152;48.348;10.980;2023-08-17T04:16:45;19.30;99.90
14144;DHT22;7152;48.348;10.980;2023-08-17T04:19:11;19.40;99.90
14144;DHT22;7152;48.348;10.980;2023-08-17T04:21:37;19.30;99.90
14144;DHT22;7152;48.348;10.980;2023-08-17T04:24:03;19.30;99.90
14144;DHT22;7152;48.348;10.980;2023-08-17T04:26:29;19.30;99.90
14144;DHT22;7152;48.348;10.980;2023-08-17T04:28:55;19.30;99.90
14144;DHT22;7152;48.348;10.980;2023-08-17T04:31:21;19.20;99.90
14144;DHT22;7152;48.348;10.980;2023-08-17T04:33:54;19.20;99.90
14144;DHT22;7152;48.348;10.980;2023-08-17T04:36:20;19.20;99.90
14144;DHT22;7152;48.348;10.980;2023-08-17T04:38:46;19.10;99.90
14144;DHT22;7152;48.348;10.980;2023-08-17T04:41:11;19.10;99.90
14144;DHT22;7152;48.348;10.980;2023-08-17T04:43:37;19.10;99.90
14144;DHT22;7152;48.348;10.980;2023-08-17T04:46:03;19.10;99.90
14144;DHT22;7152;48.348;10.980;2023-08-17T04:48:30;19.00;99.90
14144;DHT22;7152;48.348;10.980;2023-08-17T04:50:55;19.00;99.90
14144;DHT22;7152;48.348;10.980;2023-08-17T04:53:21;18.90;99.90
14144;DHT22;7152;48.348;10.980;2023-08-17T04:55:49;18.80;99.90
14144;DHT22;7152;48.348;10.980;2023-08-17T04:58:15;18.80;99.90
14144;DHT22;7152;48.348;10.980;2023-08-17T05:00:41;18.70;99.90
14144;DHT22;7152;48.348;10.980;2023-08-17T05:03:07;18.60;99.90
14144;DHT22;7152;48.348;10.980;2023-08-17T05:05:37;18.60;99.90
14144;DHT22;7152;48.348;10.980;2023-08-17T05:08:07;18.60;99.90
14144;DHT22;7152;48.348;10.980;2023-08-17T05:10:33;18.60;99.90
14144;DHT22;7152;48.348;10.980;2023-08-17T05:12:59;18.60;99.90
14144;DHT22;7152;48.348;10.980;2023-08-17T05:15:27;18.60;99.90
14144;DHT22;7152;48.348;10.980;2023-08-17T05:17:55;18.70;99.90
14144;DHT22;7152;48.348;10.980;2023-08-17T05:20:21;18.70;99.90
14144;DHT22;7152;48.348;10.980;2023-08-17T05:22:48;18.80;99.90
14144;DHT22;7152;48.348;10.980;2023-08-17T05:25:14;18.80;99.90
14144;DHT22;7152;48.348;10.980;2023-08-17T05:27:41;18.90;99.90
14144;DHT22;7152;48.348;10.980;2023-08-17T05:30:08;19.00;99.90
14144;DHT22;7152;48.348;10.980;2023-08-17T05:32:33;19.00;99.90
14144;DHT22;7152;48.348;10.980;2023-08-17T05:35:00;19.10;99.90
14144;DHT22;7152;48.348;10.980;2023-08-17T05:37:25;19.10;99.90
14144;DHT22;7152;48.348;10.980;2023-08-17T05:39:51;19.20;99.90
14144;DHT22;7152;48.348;10.980;2023-08-17T05:42:18;19.20;99.90
14144;DHT22;7152;48.348;10.980;2023-08-17T05:44:44;19.20;99.90
14144;DHT22;7152;48.348;10.980;2023-08-17T05:47:10;19.30;99.90
14144;DHT22;7152;48.348;10.980;2023-08-17T05:49:36;19.40;99.90
14144;DHT22;7152;48.348;10.980;2023-08-17T05:52:06;19.50;99.90
14144;DHT22;7152;48.348;10.980;2023-08-17T05:54:32;19.60;99.90
14144;DHT22;7152;48.348;10.980;2023-08-17T05:56:58;19.70;99.90
14144;DHT22;7152;48.348;10.980;2023-08-17T05:59:24;19.70;99.90
14144;DHT22;7152;48.348;10.980;2023-08-17T06:01:49;19.80;99.90
14144;DHT22;7152;48.348;10.980;2023-08-17T06:04:15;19.80;99.90
14144;DHT22;7152;48.348;10.980;2023-08-17T06:06:41;19.90;99.90
14144;DHT22;7152;48.348;10.980;2023-08-17T06:09:07;19.90;99.90
14144;DHT22;7152;48.348;10.980;2023-08-17T06:11:34;19.90;99.90
14144;DHT22;7152;48.348;10.980;2023-08-17T06:14:00;20.00;99.90
14144;DHT22;7152;48.348;10.980;2023-08-17T06:16:26;20.00;99.90
14144;DHT22;7152;48.348;10.980;2023-08-17T06:18:51;20.10;99.90
14144;DHT22;7152;48.348;10.980;2023-08-17T06:21:17;20.00;99.90
14144;DHT22;7152;48.348;10.980;2023-08-17T06:23:43;20.10;99.90
14144;DHT22;7152;48.348;10.980;2023-08-17T06:26:09;20.10;99.90
14144;DHT22;7152;48.348;10.980;2023-08-17T06:28:35;20.20;99.90
14144;DHT22;7152;48.348;10.980;2023-08-17T06:31:01;20.30;99.90
14144;DHT22;7152;48.348;10.980;2023-08-17T06:33:27;20.40;99.90
14144;DHT22;7152;48.348;10.980;2023-08-17T06:35:53;20.50;99.90
14144;DHT22;7152;48.348;10.980;2023-08-17T06:38:18;20.50;99.90
14144;DHT22;7152;48.348;10.980;2023-08-17T06:40:45;20.60;99.90
14144;DHT22;7152;48.348;10.980;2023-08-17T06:43:11;20.70;99.90
14144;DHT22;7152;48.348;10.980;2023-08-17T06:45:37;20.70;99.90
14144;DHT22;7152;48.348;10.980;2023-08-17T06:48:03;20.80;99.90
14144;DHT22;7152;48.348;10.980;2023-08-17T06:50:29;20.90;99.90
14144;DHT22;7152;48.348;10.980;2023-08-17T06:52:55;21.00;99.90
14144;DHT22;7152;48.348;10.980;2023-08-17T06:55:21;21.10;99.90
14144;DHT22;7152;48.348;10.980;2023-08-17T06:57:47;21.20;99.90
14144;DHT22;7152;48.348;10.980;2023-08-17T07:00:18;21.30;99.90
14144;DHT22;7152;48.348;10.980;2023-08-17T07:02:47;21.40;99.90
14144;DHT22;7152;48.348;10.980;2023-08-17T07:05:14;21.50;99.90
14144;DHT22;7152;48.348;10.980;2023-08-17T07:07:41;21.50;99.90
14144;DHT22;7152;48.348;10.980;2023-08-17T07:10:11;21.60;99.90
14144;DHT22;7152;48.348;10.980;2023-08-17T07:12:38;21.70;99.90
14144;DHT22;7152;48.348;10.980;2023-08-17T07:15:05;21.80;99.90
14144;DHT22;7152;48.348;10.980;2023-08-17T07:17:31;22.00;99.90
14144;DHT22;7152;48.348;10.980;2023-08-17T07:19:57;22.00;99.90
14144;DHT22;7152;48.348;10.980;2023-08-17T07:22:23;22.10;99.90
14144;DHT22;7152;48.348;10.980;2023-08-17T07:24:49;22.20;99.90
14144;DHT22;7152;48.348;10.980;2023-08-17T07:27:15;22.40;99.90
14144;DHT22;7152;48.348;10.980;2023-08-17T07:29:40;22.50;99.90
14144;DHT22;7152;48.348;10.980;2023-08-17T07:32:06;22.50;99.90
14144;DHT22;7152;48.348;10.980;2023-08-17T07:34:39;22.70;99.90
14144;DHT22;7152;48.348;10.980;2023-08-17T07:37:04;22.80;99.90
14144;DHT22;7152;48.348;10.980;2023-08-17T07:39:32;22.90;99.90
14144;DHT22;7152;48.348;10.980;2023-08-17T07:41:58;22.90;99.90
14144;DHT22;7152;48.348;10.980;2023-08-17T07:44:24;23.00;99.90
14144;DHT22;7152;48.348;10.980;2023-08-17T07:46:49;23.00;99.90
14144;DHT22;7152;48.348;10.980;2023-08-17T07:49:16;23.10;99.90
14144;DHT22;7152;48.348;10.980;2023-08-17T07:51:42;23.20;99.90
14144;DHT22;7152;48.348;10.980;2023-08-17T07:54:08;23.30;99.90
14144;DHT22;7152;48.348;10.980;2023-08-17T07:56:34;23.40;99.90
14144;DHT22;7152;48.348;10.980;2023-08-17T07:59:00;23.50;99.90
14144;DHT22;7152;48.348;10.980;2023-08-17T08:01:26;23.60;99.90
14144;DHT22;7152;48.348;10.980;2023-08-17T08:03:52;23.70;99.90
14144;DHT22;7152;48.348;10.980;2023-08-17T08:06:17;23.80;99.90
14144;DHT22;7152;48.348;10.980;2023-08-17T08:08:46;24.00;99.90
14144;DHT22;7152;48.348;10.980;2023-08-17T08:11:12;24.10;99.90
14144;DHT22;7152;48.348;10.980;2023-08-17T08:13:38;24.20;99.90
14144;DHT22;7152;48.348;10.980;2023-08-17T08:16:03;24.30;99.90
14144;DHT22;7152;48.348;10.980;2023-08-17T08:18:29;24.40;99.90
14144;DHT22;7152;48.348;10.980;2023-08-17T08:20:55;24.50;99.90
14144;DHT22;7152;48.348;10.980;2023-08-17T08:23:21;24.60;99.90
14144;DHT22;7152;48.348;10.980;2023-08-17T08:25:47;24.70;99.90
14144;DHT22;7152;48.348;10.980;2023-08-17T08:28:13;24.80;99.90
14144;DHT22;7152;48.348;10.980;2023-08-17T08:30:39;25.00;99.90
14144;DHT22;7152;48.348;10.980;2023-08-17T08:33:04;25.00;99.90
14144;DHT22;7152;48.348;10.980;2023-08-17T08:35:30;25.10;99.90
14144;DHT22;7152;48.348;10.980;2023-08-17T08:37:58;25.20;99.90
14144;DHT22;7152;48.348;10.980;2023-08-17T08:40:29;25.30;99.90
14144;DHT22;7152;48.348;10.980;2023-08-17T08:42:56;25.40;99.90
14144;DHT22;7152;48.348;10.980;2023-08-17T08:45:23;25.50;99.90
14144;DHT22;7152;48.348;10.980;2023-08-17T08:47:49;25.70;99.90
14144;DHT22;7152;48.348;10.980;2023-08-17T08:50:20;25.80;99.90
14144;DHT22;7152;48.348;10.980;2023-08-17T08:52:59;25.90;99.90
14144;DHT22;7152;48.348;10.980;2023-08-17T08:55:30;26.00;99.90
14144;DHT22;7152;48.348;10.980;2023-08-17T08:57:59;26.10;99.90
14144;DHT22;7152;48.348;10.980;2023-08-17T09:00:26;26.20;99.90
14144;DHT22;7152;48.348;10.980;2023-08-17T09:02:53;26.40;99.90
14144;DHT22;7152;48.348;10.980;2023-08-17T09:05:21;26.40;99.90
14144;DHT22;7152;48.348;10.980;2023-08-17T09:07:48;26.60;99.90
14144;DHT22;7152;48.348;10.980;2023-08-17T09:10:15;26.70;99.90
14144;DHT22;7152;48.348;10.980;2023-08-17T09:12:46;26.80;99.90
14144;DHT22;7152;48.348;10.980;2023-08-17T09:15:13;26.80;99.90
14144;DHT22;7152;48.348;10.980;2023-08-17T09:17:38;26.90;99.90
14144;DHT22;7152;48.348;10.980;2023-08-17T09:20:05;27.20;99.90
14144;DHT22;7152;48.348;10.980;2023-08-17T09:22:43;27.20;99.90
14144;DHT22;7152;48.348;10.980;2023-08-17T09:25:22;27.30;99.90
14144;DHT22;7152;48.348;10.980;2023-08-17T09:27:49;27.50;99.90
14144;DHT22;7152;48.348;10.980;2023-08-17T09:30:14;27.70;99.90
14144;DHT22;7152;48.348;10.980;2023-08-17T09:32:41;27.80;99.90
14144;DHT22;7152;48.348;10.980;2023-08-17T09:35:07;28.00;99.90
14144;DHT22;7152;48.348;10.980;2023-08-17T09:37:34;28.10;99.90
14144;DHT22;7152;48.348;10.980;2023-08-17T09:40:00;28.30;99.90
14144;DHT22;7152;48.348;10.980;2023-08-17T09:42:26;28.40;99.90
14144;DHT22;7152;48.348;10.980;2023-08-17T09:44:53;28.50;99.90
14144;DHT22;7152;48.348;10.980;2023-08-17T09:47:20;28.60;99.90
14144;DHT22;7152;48.348;10.980;2023-08-17T09:49:52;28.80;99.90
14144;DHT22;7152;48.348;10.980;2023-08-17T09:52:24;28.90;99.90
14144;DHT22;7152;48.348;10.980;2023-08-17T09:54:52;29.00;99.90
14144;DHT22;7152;48.348;10.980;2023-08-17T09:57:20;29.20;99.90
14144;DHT22;7152;48.348;10.980;2023-08-17T09:59:49;29.30;99.90
14144;DHT22;7152;48.348;10.980;2023-08-17T10:02:22;29.50;99.90
14144;DHT22;7152;48.348;10.980;2023-08-17T10:04:51;29.60;99.90
14144;DHT22;7152;48.348;10.980;2023-08-17T10:07:23;29.80;99.90
14144;DHT22;7152;48.348;10.980;2023-08-17T10:10:02;29.80;99.90
14144;DHT22;7152;48.348;10.980;2023-08-17T10:12:34;29.90;99.90
14144;DHT22;7152;48.348;10.980;2023-08-17T10:15:08;30.10;99.90
14144;DHT22;7152;48.348;10.980;2023-08-17T10:17:55;30.20;99.90
14144;DHT22;7152;48.348;10.980;2023-08-17T10:20:29;30.40;99.90
14144;DHT22;7152;48.348;10.980;2023-08-17T10:22:57;30.50;99.90
14144;DHT22;7152;48.348;10.980;2023-08-17T10:25:29;30.60;99.90
14144;DHT22;7152;48.348;10.980;2023-08-17T10:27:58;30.70;99.90
14144;DHT22;7152;48.348;10.980;2023-08-17T10:30:26;30.90;99.90
14144;DHT22;7152;48.348;10.980;2023-08-17T10:32:52;31.00;99.90
14144;DHT22;7152;48.348;10.980;2023-08-17T10:35:19;31.10;99.90
14144;DHT22;7152;48.348;10.980;2023-08-17T10:37:45;31.30;99.90
14144;DHT22;7152;48.348;10.980;2023-08-17T10:40:11;31.50;99.90
14144;DHT22;7152;48.348;10.980;2023-08-17T10:42:40;31.60;99.90
14144;DHT22;7152;48.348;10.980;2023-08-17T10:47:47;31.90;99.90
14144;DHT22;7152;48.348;10.980;2023-08-17T10:50:24;32.10;99.90
14144;DHT22;7152;48.348;10.980;2023-08-17T10:52:53;32.30;99.90
14144;DHT22;7152;48.348;10.980;2023-08-17T10:55:39;32.50;99.90
14144;DHT22;7152;48.348;10.980;2023-08-17T10:58:08;32.60;99.90
14144;DHT22;7152;48.348;10.980;2023-08-17T11:00:36;32.70;99.90
14144;DHT22;7152;48.348;10.980;2023-08-17T11:05:43;33.00;99.90
14144;DHT22;7152;48.348;10.980;2023-08-17T11:08:50;33.30;99.90
14144;DHT22;7152;48.348;10.980;2023-08-17T11:11:20;33.60;99.90
14144;DHT22;7152;48.348;10.980;2023-08-17T11:13:46;33.80;99.90
14144;DHT22;7152;48.348;10.980;2023-08-17T11:16:14;33.80;99.90
14144;DHT22;7152;48.348;10.980;2023-08-17T11:18:43;34.00;99.90
14144;DHT22;7152;48.348;10.980;2023-08-17T11:21:14;34.30;99.90
14144;DHT22;7152;48.348;10.980;2023-08-17T11:23:40;34.50;99.90
14144;DHT22;7152;48.348;10.980;2023-08-17T11:26:07;34.80;99.90
14144;DHT22;7152;48.348;10.980;2023-08-17T11:28:33;35.00;99.90
14144;DHT22;7152;48.348;10.980;2023-08-17T11:31:08;35.10;99.90
14144;DHT22;7152;48.348;10.980;2023-08-17T11:33:35;35.20;99.90
14144;DHT22;7152;48.348;10.980;2023-08-17T11:36:06;35.40;99.90
14144;DHT22;7152;48.348;10.980;2023-08-17T11:38:34;35.70;99.90
14144;DHT22;7152;48.348;10.980;2023-08-17T11:41:01;36.00;99.90
14144;DHT22;7152;48.348;10.980;2023-08-17T11:43:29;36.40;99.90
14144;DHT22;7152;48.348;10.980;2023-08-17T11:45:58;36.70;99.10
14144;DHT22;7152;48.348;10.980;2023-08-17T11:48:27;36.80;97.20
14144;DHT22;7152;48.348;10.980;2023-08-17T11:50:53;37.00;96.60
14144;DHT22;7152;48.348;10.980;2023-08-17T11:53:21;37.30;96.30
14144;DHT22;7152;48.348;10.980;2023-08-17T11:55:49;37.40;95.20
14144;DHT22;7152;48.348;10.980;2023-08-17T11:58:15;37.70;94.50
14144;DHT22;7152;48.348;10.980;2023-08-17T12:00:43;38.10;94.00
14144;DHT22;7152;48.348;10.980;2023-08-17T12:03:15;38.50;93.00
14144;DHT22;7152;48.348;10.980;2023-08-17T12:05:43;38.60;91.20
14144;DHT22;7152;48.348;10.980;2023-08-17T12:08:09;38.70;89.90
14144;DHT22;7152;48.348;10.980;2023-08-17T12:10:37;38.90;88.60
14144;DHT22;7152;48.348;10.980;2023-08-17T12:13:06;39.00;87.60
14144;DHT22;7152;48.348;10.980;2023-08-17T12:15:39;39.10;85.70
14144;DHT22;7152;48.348;10.980;2023-08-17T12:18:05;39.10;83.90
14144;DHT22;7152;48.348;10.980;2023-08-17T12:20:34;39.30;83.10
14144;DHT22;7152;48.348;10.980;2023-08-17T12:23:06;39.40;83.10
14144;DHT22;7152;48.348;10.980;2023-08-17T12:25:32;39.70;82.80
14144;DHT22;7152;48.348;10.980;2023-08-17T12:28:01;39.90;80.80
14144;DHT22;7152;48.348;10.980;2023-08-17T12:30:29;40.00;79.50
14144;DHT22;7152;48.348;10.980;2023-08-17T12:32:57;40.20;77.90
14144;DHT22;7152;48.348;10.980;2023-08-17T12:35:26;40.20;76.50
14144;DHT22;7152;48.348;10.980;2023-08-17T12:37:53;40.30;75.60
14144;DHT22;7152;48.348;10.980;2023-08-17T12:40:19;40.60;74.00
14144;DHT22;7152;48.348;10.980;2023-08-17T12:42:48;40.80;69.80
14144;DHT22;7152;48.348;10.980;2023-08-17T12:45:15;40.90;69.30
14144;DHT22;7152;48.348;10.980;2023-08-17T12:47:41;40.60;71.90
14144;DHT22;7152;48.348;10.980;2023-08-17T12:50:07;39.60;72.70
14144;DHT22;7152;48.348;10.980;2023-08-17T12:52:34;38.90;73.90
14144;DHT22;7152;48.348;10.980;2023-08-17T12:55:00;38.30;75.50
14144;DHT22;7152;48.348;10.980;2023-08-17T12:57:28;37.70;75.80
14144;DHT22;7152;48.348;10.980;2023-08-17T12:59:56;37.10;77.00
14144;DHT22;7152;48.348;10.980;2023-08-17T13:02:23;36.50;76.00
14144;DHT22;7152;48.348;10.980;2023-08-17T13:04:49;36.00;76.20
14144;DHT22;7152;48.348;10.980;2023-08-17T13:07:15;35.90;76.30
14144;DHT22;7152;48.348;10.980;2023-08-17T13:09:42;35.60;77.50
14144;DHT22;7152;48.348;10.980;2023-08-17T13:12:08;35.50;80.40
14144;DHT22;7152;48.348;10.980;2023-08-17T13:14:36;35.40;79.70
14144;DHT22;7152;48.348;10.980;2023-08-17T13:17:02;35.40;79.40
14144;DHT22;7152;48.348;10.980;2023-08-17T13:19:28;35.30;80.60
14144;DHT22;7152;48.348;10.980;2023-08-17T13:21:54;35.30;82.30
14144;DHT22;7152;48.348;10.980;2023-08-17T13:24:20;35.50;83.00
14144;DHT22;7152;48.348;10.980;2023-08-17T13:26:46;35.50;82.30
14144;DHT22;7152;48.348;10.980;2023-08-17T13:29:12;35.50;81.50
14144;DHT22;7152;48.348;10.980;2023-08-17T13:31:43;35.30;80.30
14144;DHT22;7152;48.348;10.980;2023-08-17T13:34:09;35.20;82.00
14144;DHT22;7152;48.348;10.980;2023-08-17T13:36:39;35.20;84.30
14144;DHT22;7152;48.348;10.980;2023-08-17T13:39:06;35.30;84.00
14144;DHT22;7152;48.348;10.980;2023-08-17T13:41:32;35.50;83.30
14144;DHT22;7152;48.348;10.980;2023-08-17T13:43:58;35.90;83.70
14144;DHT22;7152;48.348;10.980;2023-08-17T13:46:26;36.30;82.60
14144;DHT22;7152;48.348;10.980;2023-08-17T13:48:52;36.90;81.40
14144;DHT22;7152;48.348;10.980;2023-08-17T13:51:19;37.60;81.00
14144;DHT22;7152;48.348;10.980;2023-08-17T13:53:45;38.20;80.30
14144;DHT22;7152;48.348;10.980;2023-08-17T13:56:11;38.70;79.90
14144;DHT22;7152;48.348;10.980;2023-08-17T13:58:39;39.10;79.80
14144;DHT22;7152;48.348;10.980;2023-08-17T14:01:05;39.20;78.00
14144;DHT22;7152;48.348;10.980;2023-08-17T14:03:31;38.90;76.60
14144;DHT22;7152;48.348;10.980;2023-08-17T14:05:57;38.50;76.60
14144;DHT22;7152;48.348;10.980;2023-08-17T14:08:23;37.60;76.00
14144;DHT22;7152;48.348;10.980;2023-08-17T14:10:51;37.20;77.40
14144;DHT22;7152;48.348;10.980;2023-08-17T14:13:17;36.90;79.40
14144;DHT22;7152;48.348;10.980;2023-08-17T14:15:45;36.50;79.10
14144;DHT22;7152;48.348;10.980;2023-08-17T14:18:11;36.00;80.00
14144;DHT22;7152;48.348;10.980;2023-08-17T14:20:37;35.50;79.50
14144;DHT22;7152;48.348;10.980;2023-08-17T14:23:03;35.00;80.10
14144;DHT22;7152;48.348;10.980;2023-08-17T14:25:31;34.40;80.60
14144;DHT22;7152;48.348;10.980;2023-08-17T14:27:57;33.80;82.20
14144;DHT22;7152;48.348;10.980;2023-08-17T14:30:24;33.40;83.30
14144;DHT22;7152;48.348;10.980;2023-08-17T14:32:51;33.00;82.90
14144;DHT22;7152;48.348;10.980;2023-08-17T14:35:17;32.60;84.00
14144;DHT22;7152;48.348;10.980;2023-08-17T14:37:43;32.40;85.30
14144;DHT22;7152;48.348;10.980;2023-08-17T14:40:09;32.20;86.30
14144;DHT22;7152;48.348;10.980;2023-08-17T14:42:37;32.10;87.60
14144;DHT22;7152;48.348;10.980;2023-08-17T14:45:06;32.20;87.80
14144;DHT22;7152;48.348;10.980;2023-08-17T14:47:32;32.70;85.50
14144;DHT22;7152;48.348;10.980;2023-08-17T14:49:58;33.10;84.80
14144;DHT22;7152;48.348;10.980;2023-08-17T14:52:24;33.40;83.10
14144;DHT22;7152;48.348;10.980;2023-08-17T14:54:51;33.30;83.20
14144;DHT22;7152;48.348;10.980;2023-08-17T14:57:17;33.20;84.80
14144;DHT22;7152;48.348;10.980;2023-08-17T14:59:43;33.00;86.30
14144;DHT22;7152;48.348;10.980;2023-08-17T15:02:09;32.70;87.40
14144;DHT22;7152;48.348;10.980;2023-08-17T15:04:39;32.50;87.80
14144;DHT22;7152;48.348;10.980;2023-08-17T15:07:05;32.20;89.60
14144;DHT22;7152;48.348;10.980;2023-08-17T15:09:36;31.70;90.00
14144;DHT22;7152;48.348;10.980;2023-08-17T15:12:03;31.50;91.00
14144;DHT22;7152;48.348;10.980;2023-08-17T15:14:28;31.20;92.00
14144;DHT22;7152;48.348;10.980;2023-08-17T15:16:54;31.00;92.60
14144;DHT22;7152;48.348;10.980;2023-08-17T15:19:20;30.70;91.60
14144;DHT22;7152;48.348;10.980;2023-08-17T15:21:46;30.30;90.50
14144;DHT22;7152;48.348;10.980;2023-08-17T15:24:12;29.30;89.50
14144;DHT22;7152;48.348;10.980;2023-08-17T15:26:38;28.50;90.20
14144;DHT22;7152;48.348;10.980;2023-08-17T15:29:04;27.60;90.90
14144;DHT22;7152;48.348;10.980;2023-08-17T15:31:30;27.00;91.60
14144;DHT22;7152;48.348;10.980;2023-08-17T15:33:55;26.50;92.20
14144;DHT22;7152;48.348;10.980;2023-08-17T15:36:21;26.20;92.60
14144;DHT22;7152;48.348;10.980;2023-08-17T15:38:52;25.80;93.00
14144;DHT22;7152;48.348;10.980;2023-08-17T15:41:18;25.70;93.40